createdAt,value
2023-03-20T00:02:08.421Z,11.00
2023-03-20T00:04:35.376Z,10.98
2023-03-20T00:07:03.760Z,10.97
2023-03-20T00:09:31.404Z,10.91
2023-03-20T00:11:58.444Z,10.92
2023-03-20T00:14:26.278Z,10.88
2023-03-20T00:16:53.371Z,10.88
2023-03-20T00:19:27.505Z,10.87
2023-03-20T00:21:55.614Z,10.82
2023-03-20T00:24:23.534Z,10.77
2023-03-20T00:26:52.618Z,10.79
2023-03-20T00:29:27.826Z,10.70
2023-03-20T00:31:55.831Z,10.69
2023-03-20T00:34:27.180Z,10.66
2023-03-20T00:36:54.961Z,10.62
2023-03-20T00:39:22.195Z,10.57
2023-03-20T00:41:58.466Z,10.50
2023-03-20T00:44:35.418Z,10.45
2023-03-20T00:47:18.777Z,10.43
2023-03-20T00:49:49.916Z,10.43
2023-03-20T00:52:19.714Z,10.41
2023-03-20T00:54:46.881Z,10.40
2023-03-20T00:57:30.032Z,10.38
2023-03-20T01:00:06.909Z,10.39
2023-03-20T01:02:34.120Z,10.38
2023-03-20T01:05:02.159Z,10.40
2023-03-20T01:07:29.173Z,10.40
2023-03-20T01:09:56.211Z,10.42
2023-03-20T01:12:23.821Z,10.45
2023-03-20T01:14:56.947Z,10.45
2023-03-20T01:17:26.299Z,10.51
2023-03-20T01:19:53.351Z,10.51
2023-03-20T01:22:20.565Z,10.56
2023-03-20T01:24:47.832Z,10.60
2023-03-20T01:27:20.404Z,10.61
2023-03-20T01:29:48.202Z,10.63
2023-03-20T01:32:19.186Z,10.59
2023-03-20T01:34:49.536Z,10.61
2023-03-20T01:37:27.484Z,10.58
2023-03-20T01:39:57.851Z,10.56
2023-03-20T01:42:25.905Z,10.55
2023-03-20T01:44:52.891Z,10.54
2023-03-20T01:47:24.096Z,10.48
2023-03-20T01:50:31.536Z,10.45
2023-03-20T01:53:27.644Z,10.45
2023-03-20T01:56:00.837Z,10.44
2023-03-20T01:58:41.956Z,10.42
2023-03-20T02:01:11.636Z,10.46
2023-03-20T02:03:43.251Z,10.47
2023-03-20T02:06:17.426Z,10.49
2023-03-20T02:09:13.765Z,10.48
2023-03-20T02:11:46.907Z,10.48
2023-03-20T02:14:15.855Z,10.48
2023-03-20T02:16:57.179Z,10.45
2023-03-20T02:20:05.295Z,10.44
2023-03-20T02:23:09.675Z,10.42
2023-03-20T02:26:17.385Z,10.39
2023-03-20T02:29:28.537Z,10.37
2023-03-20T02:32:11.788Z,10.40
2023-03-20T02:35:06.793Z,10.42
2023-03-20T02:37:51.644Z,10.46
2023-03-20T02:40:56.995Z,10.50
2023-03-20T02:43:44.023Z,10.50
2023-03-20T02:46:39.685Z,10.49
2023-03-20T02:49:26.818Z,10.52
2023-03-20T02:52:44.005Z,10.51
2023-03-20T02:55:18.826Z,10.51
2023-03-20T02:58:21.445Z,10.54
2023-03-20T03:01:02.001Z,10.54
2023-03-20T03:03:39.928Z,10.55
2023-03-20T03:06:32.616Z,10.54
2023-03-20T03:09:17.748Z,10.54
2023-03-20T03:11:59.097Z,10.52
2023-03-20T03:14:41.688Z,10.51
2023-03-20T03:17:15.536Z,10.48
2023-03-20T03:19:49.502Z,10.52
2023-03-20T03:22:17.387Z,10.47
2023-03-20T03:24:51.283Z,10.45
2023-03-20T03:27:43.234Z,10.46
2023-03-20T03:30:28.651Z,10.40
2023-03-20T03:33:17.104Z,10.40
2023-03-20T03:35:46.281Z,10.36
2023-03-20T03:38:56.464Z,10.32
2023-03-20T03:41:42.516Z,10.26
2023-03-20T03:44:20.391Z,10.17
2023-03-20T03:46:57.354Z,10.16
2023-03-20T03:49:36.730Z,10.10
2023-03-20T03:52:09.285Z,10.06
2023-03-20T03:55:05.432Z,9.99
2023-03-20T03:57:40.394Z,9.96
2023-03-20T04:00:14.360Z,9.89
2023-03-20T04:02:47.502Z,9.82
2023-03-20T04:05:17.144Z,9.78
2023-03-20T04:07:53.557Z,9.72
2023-03-20T04:10:20.686Z,9.68
2023-03-20T04:12:47.680Z,9.61
2023-03-20T04:15:16.782Z,9.55
2023-03-20T04:17:44.733Z,9.51
2023-03-20T04:20:14.712Z,9.45
2023-03-20T04:22:42.040Z,9.39
2023-03-20T04:25:24.037Z,9.35
2023-03-20T04:27:53.933Z,9.27
2023-03-20T04:30:48.116Z,9.22
2023-03-20T04:33:22.652Z,9.17
2023-03-20T04:36:12.555Z,9.10
2023-03-20T04:38:40.645Z,9.09
2023-03-20T04:41:08.815Z,9.02
2023-03-20T04:43:36.217Z,9.02
2023-03-20T04:46:03.942Z,8.98
2023-03-20T04:48:31.317Z,9.01
2023-03-20T04:50:58.802Z,9.04
2023-03-20T04:53:37.502Z,9.10
2023-03-20T04:56:05.438Z,9.12
2023-03-20T04:58:36.632Z,9.17
2023-03-20T05:01:04.377Z,9.19
2023-03-20T05:03:31.294Z,9.22
2023-03-20T05:05:59.343Z,9.23
2023-03-20T05:08:26.368Z,9.22
2023-03-20T05:10:57.493Z,9.25
2023-03-20T05:13:54.661Z,9.22
2023-03-20T05:16:33.028Z,9.20
2023-03-20T05:19:17.161Z,9.20
2023-03-20T05:21:57.945Z,9.18
2023-03-20T05:24:39.783Z,9.17
2023-03-20T05:27:14.384Z,9.14
2023-03-20T05:30:04.791Z,9.15
2023-03-20T05:32:52.579Z,9.15
2023-03-20T05:35:28.546Z,9.16
2023-03-20T05:38:25.878Z,9.19
2023-03-20T05:41:18.872Z,9.12
2023-03-20T05:44:02.373Z,9.12
2023-03-20T05:46:47.742Z,9.10
2023-03-20T05:49:21.580Z,9.10
2023-03-20T05:51:54.260Z,9.08
2023-03-20T05:54:31.774Z,9.07
2023-03-20T05:57:25.006Z,9.07
2023-03-20T05:59:51.944Z,9.05
2023-03-20T06:02:47.208Z,9.09
2023-03-20T06:05:35.892Z,9.08
2023-03-20T06:08:03.733Z,9.10
2023-03-20T06:10:30.839Z,9.16
2023-03-20T06:13:00.981Z,9.21
2023-03-20T06:15:29.342Z,9.27
2023-03-20T06:18:04.057Z,9.34
2023-03-20T06:20:31.627Z,9.38
2023-03-20T06:23:01.606Z,9.48
2023-03-20T06:25:28.851Z,9.55
2023-03-20T06:27:55.985Z,9.66
2023-03-20T06:30:22.990Z,9.74
2023-03-20T06:32:51.067Z,9.86
2023-03-20T06:35:21.067Z,9.96
2023-03-20T06:37:50.634Z,10.04
2023-03-20T06:40:22.838Z,10.15
2023-03-20T06:42:50.279Z,10.27
2023-03-20T06:45:18.510Z,10.35
2023-03-20T06:47:47.163Z,10.43
2023-03-20T06:50:14.885Z,10.55
2023-03-20T06:52:42.808Z,10.65
2023-03-20T06:55:31.729Z,10.73
2023-03-20T06:57:58.916Z,10.90
2023-03-20T07:00:27.114Z,10.95
2023-03-20T07:02:54.489Z,11.09
2023-03-20T07:05:21.612Z,11.15
2023-03-20T07:07:48.715Z,11.29
2023-03-20T07:10:17.226Z,11.40
2023-03-20T07:12:51.082Z,11.54
2023-03-20T07:15:20.111Z,11.68
2023-03-20T07:17:47.812Z,11.81
2023-03-20T07:20:15.152Z,11.91
2023-03-20T07:22:42.707Z,12.02
2023-03-20T07:25:16.976Z,12.09
2023-03-20T07:27:50.504Z,12.22
2023-03-20T07:30:20.872Z,12.35
2023-03-20T07:32:49.116Z,12.46
2023-03-20T07:35:16.422Z,12.57
2023-03-20T07:37:44.524Z,12.67
2023-03-20T07:40:12.351Z,12.79
2023-03-20T07:42:53.638Z,12.92
2023-03-20T07:45:57.523Z,13.00
2023-03-20T07:48:24.534Z,13.10
2023-03-20T07:50:51.670Z,13.17
2023-03-20T07:53:18.601Z,13.22
2023-03-20T07:55:48.690Z,13.26
2023-03-20T07:58:15.601Z,13.33
2023-03-20T08:00:42.565Z,13.38
2023-03-20T08:03:10.211Z,13.47
2023-03-20T08:05:38.184Z,13.58
2023-03-20T08:08:05.650Z,13.62
2023-03-20T08:10:32.802Z,13.73
2023-03-20T08:12:59.902Z,13.85
2023-03-20T08:15:26.985Z,13.93
2023-03-20T08:17:53.890Z,14.04
2023-03-20T08:20:21.689Z,14.11
2023-03-20T08:22:49.716Z,14.20
2023-03-20T08:25:17.183Z,14.23
2023-03-20T08:27:44.192Z,14.27
2023-03-20T08:30:12.991Z,14.31
2023-03-20T08:32:40.241Z,14.37
2023-03-20T08:35:16.360Z,14.43
2023-03-20T08:37:49.300Z,14.46
2023-03-20T08:40:16.885Z,14.54
2023-03-20T08:42:43.969Z,14.62
2023-03-20T08:45:11.668Z,14.61
2023-03-20T08:47:40.604Z,14.70
2023-03-20T08:50:08.500Z,14.73
2023-03-20T08:52:36.286Z,14.81
2023-03-20T08:55:03.776Z,14.86
2023-03-20T08:57:30.826Z,14.92
2023-03-20T08:59:57.740Z,14.99
2023-03-20T09:02:24.810Z,15.06
2023-03-20T09:04:51.845Z,15.14
2023-03-20T09:07:18.898Z,15.23
2023-03-20T09:09:46.001Z,15.34
2023-03-20T09:12:12.859Z,15.46
2023-03-20T09:14:39.920Z,15.52
2023-03-20T09:17:06.980Z,15.59
2023-03-20T09:19:34.845Z,15.71
2023-03-20T09:22:01.877Z,15.87
2023-03-20T09:24:29.253Z,16.04
2023-03-20T09:26:56.194Z,16.22
2023-03-20T09:29:23.282Z,16.36
2023-03-20T09:31:50.374Z,16.52
2023-03-20T09:34:17.293Z,16.65
2023-03-20T09:36:44.375Z,16.68
2023-03-20T09:39:11.705Z,16.74
2023-03-20T09:41:53.271Z,16.85
2023-03-20T09:45:01.865Z,16.93
2023-03-20T09:47:52.442Z,17.03
2023-03-20T09:50:44.734Z,17.11
2023-03-20T09:53:18.124Z,17.14
2023-03-20T09:55:45.375Z,17.16
2023-03-20T09:58:21.104Z,17.20
2023-03-20T10:00:48.272Z,17.13
2023-03-20T10:03:25.010Z,17.09
2023-03-20T10:06:03.489Z,17.08
2023-03-20T10:08:36.531Z,17.23
2023-03-20T10:11:23.530Z,17.37
2023-03-20T10:14:21.863Z,17.53
2023-03-20T10:17:29.385Z,17.75
2023-03-20T10:20:14.555Z,17.84
2023-03-20T10:22:56.594Z,17.79
2023-03-20T10:25:38.404Z,17.68
2023-03-20T10:28:13.900Z,17.66
2023-03-20T10:31:04.990Z,17.65
2023-03-20T10:33:43.961Z,17.54
2023-03-20T10:36:50.169Z,17.54
2023-03-20T10:39:43.067Z,17.63
2023-03-20T10:42:31.222Z,17.79
2023-03-20T10:45:06.828Z,18.06
2023-03-20T10:47:39.203Z,18.32
2023-03-20T10:50:14.765Z,18.39
2023-03-20T10:52:42.383Z,18.44
2023-03-20T10:55:30.807Z,18.46
2023-03-20T10:58:12.139Z,18.54
2023-03-20T11:00:39.163Z,18.66
2023-03-20T11:03:08.138Z,18.85
2023-03-20T11:05:36.980Z,19.02
2023-03-20T11:08:07.449Z,19.08
2023-03-20T11:10:37.261Z,19.12
2023-03-20T11:13:41.919Z,19.23
2023-03-20T11:16:41.203Z,19.23
2023-03-20T11:19:11.984Z,19.27
2023-03-20T11:21:58.253Z,19.24
2023-03-20T11:24:41.364Z,19.25
2023-03-20T11:27:19.198Z,19.33
2023-03-20T11:29:50.940Z,19.40
2023-03-20T11:32:45.594Z,19.55
2023-03-20T11:35:26.461Z,19.61
2023-03-20T11:38:15.408Z,19.63
2023-03-20T11:40:42.411Z,19.71
2023-03-20T11:43:21.800Z,19.75
2023-03-20T11:46:00.768Z,19.83
2023-03-20T11:48:45.428Z,19.88
2023-03-20T11:51:22.818Z,20.03
2023-03-20T11:53:49.614Z,20.09
2023-03-20T11:56:30.850Z,20.07
2023-03-20T11:59:09.373Z,20.02
2023-03-20T12:01:52.893Z,19.95
2023-03-20T12:04:37.620Z,19.95
2023-03-20T12:07:18.161Z,19.99
2023-03-20T12:10:03.066Z,19.97
2023-03-20T12:12:55.135Z,19.73
2023-03-20T12:15:34.248Z,19.59
2023-03-20T12:18:16.838Z,19.62
2023-03-20T12:20:48.434Z,19.80
2023-03-20T12:23:43.464Z,19.99
2023-03-20T12:26:16.116Z,20.14
2023-03-20T12:29:11.333Z,20.15
2023-03-20T12:31:52.549Z,19.98
2023-03-20T12:34:29.189Z,19.87
2023-03-20T12:36:59.227Z,19.70
2023-03-20T12:39:34.278Z,19.42
2023-03-20T12:42:28.938Z,19.20
2023-03-20T12:45:24.176Z,19.57
2023-03-20T12:48:12.998Z,20.79
2023-03-20T12:51:05.784Z,22.31
2023-03-20T12:53:44.856Z,23.18
2023-03-20T12:56:27.859Z,23.71
2023-03-20T12:59:11.894Z,24.05
2023-03-20T13:01:55.584Z,23.94
2023-03-20T13:05:18.159Z,23.55
2023-03-20T13:08:03.345Z,23.08
2023-03-20T13:10:41.609Z,22.63
2023-03-20T13:13:57.338Z,22.45
2023-03-20T13:17:00.380Z,22.29
2023-03-20T13:19:42.230Z,22.22
2023-03-20T13:22:55.746Z,22.04
2023-03-20T13:26:36.741Z,21.68
2023-03-20T13:29:27.897Z,21.31
2023-03-20T13:32:27.052Z,20.88
2023-03-20T13:35:02.712Z,20.65
2023-03-20T13:37:39.114Z,20.36
2023-03-20T13:40:31.977Z,20.02
2023-03-20T13:43:24.208Z,19.70
2023-03-20T13:46:16.503Z,19.46
2023-03-20T13:48:45.509Z,19.22
2023-03-20T13:51:39.247Z,18.99
2023-03-20T13:54:27.860Z,18.80
2023-03-20T13:57:08.172Z,18.57
2023-03-20T13:59:43.697Z,18.38
2023-03-20T14:02:42.033Z,18.34
2023-03-20T14:05:19.172Z,18.18
2023-03-20T14:07:49.395Z,18.07
2023-03-20T14:10:22.403Z,17.98
2023-03-20T14:12:51.017Z,17.91
2023-03-20T14:15:20.356Z,17.83
2023-03-20T14:17:50.166Z,17.72
2023-03-20T14:20:35.936Z,17.63
2023-03-20T14:23:04.729Z,17.57
2023-03-20T14:25:41.796Z,17.55
2023-03-20T14:28:11.701Z,17.60
2023-03-20T14:30:41.407Z,17.67
2023-03-20T14:33:16.332Z,17.68
2023-03-20T14:36:19.401Z,17.65
2023-03-20T14:39:22.618Z,17.64
2023-03-20T14:41:55.456Z,17.59
2023-03-20T14:44:38.774Z,17.55
2023-03-20T14:47:56.087Z,17.49
2023-03-20T14:50:41.402Z,17.43
2023-03-20T14:53:14.917Z,17.15
2023-03-20T14:56:13.407Z,16.86
2023-03-20T14:58:40.828Z,16.67
2023-03-20T15:01:19.077Z,16.40
2023-03-20T15:04:20.876Z,16.21
2023-03-20T15:07:00.220Z,15.89
2023-03-20T15:09:30.233Z,15.72
2023-03-20T15:12:04.417Z,15.49
2023-03-20T15:14:45.469Z,15.23
2023-03-20T15:17:27.147Z,14.84
2023-03-20T15:20:15.402Z,14.63
2023-03-20T15:22:58.014Z,14.43
2023-03-20T15:25:43.815Z,14.16
2023-03-20T15:28:24.592Z,13.97
2023-03-20T15:30:56.738Z,13.82
2023-03-20T15:33:27.777Z,13.71
2023-03-20T15:35:55.739Z,13.59
2023-03-20T15:38:28.413Z,13.48
2023-03-20T15:40:55.582Z,13.37
2023-03-20T15:43:25.607Z,13.34
2023-03-20T15:46:14.177Z,13.33
2023-03-20T15:48:48.736Z,13.31
2023-03-20T15:51:17.205Z,13.27
2023-03-20T15:53:47.981Z,13.26
2023-03-20T15:56:19.717Z,13.24
2023-03-20T15:58:52.213Z,13.25
2023-03-20T16:01:22.371Z,13.26
2023-03-20T16:03:50.430Z,13.31
2023-03-20T16:06:21.840Z,13.34
2023-03-20T16:09:06.595Z,13.36
2023-03-20T16:11:42.874Z,13.37
2023-03-20T16:14:26.574Z,13.43
2023-03-20T16:16:56.636Z,13.45
2023-03-20T16:19:27.293Z,13.47
2023-03-20T16:21:59.468Z,13.53
2023-03-20T16:24:35.464Z,13.57
2023-03-20T16:27:10.446Z,13.60
2023-03-20T16:29:42.982Z,13.65
2023-03-20T16:32:36.291Z,13.73
2023-03-20T16:35:18.319Z,13.75
2023-03-20T16:37:56.709Z,13.82
2023-03-20T16:40:37.707Z,13.88
2023-03-20T16:43:17.256Z,13.92
2023-03-20T16:45:58.320Z,13.93
2023-03-20T16:48:33.553Z,13.93
2023-03-20T16:51:30.779Z,13.91
2023-03-20T16:54:01.407Z,13.88
2023-03-20T16:56:40.425Z,13.87
2023-03-20T16:59:17.644Z,13.80
2023-03-20T17:01:51.970Z,13.77
2023-03-20T17:04:37.825Z,13.71
2023-03-20T17:07:19.203Z,13.68
2023-03-20T17:10:15.787Z,13.65
2023-03-20T17:12:46.709Z,13.63
2023-03-20T17:15:20.520Z,13.61
2023-03-20T17:17:47.824Z,13.62
2023-03-20T17:20:28.153Z,13.63
2023-03-20T17:22:55.188Z,13.61
2023-03-20T17:25:22.230Z,13.61
2023-03-20T17:27:49.176Z,13.57
2023-03-20T17:30:20.941Z,13.57
2023-03-20T17:32:48.141Z,13.56
2023-03-20T17:35:15.414Z,13.55
2023-03-20T17:37:42.908Z,13.55
2023-03-20T17:40:22.676Z,13.52
2023-03-20T17:42:49.632Z,13.49
2023-03-20T17:45:20.471Z,13.49
2023-03-20T17:47:48.081Z,13.49
2023-03-20T17:50:27.281Z,13.45
2023-03-20T17:52:54.989Z,13.44
2023-03-20T17:55:22.584Z,13.43
2023-03-20T17:57:49.546Z,13.42
2023-03-20T18:00:23.990Z,13.39
2023-03-20T18:02:51.165Z,13.36
2023-03-20T18:05:18.255Z,13.34
2023-03-20T18:07:45.265Z,13.29
2023-03-20T18:10:31.781Z,13.24
2023-03-20T18:13:00.226Z,13.22
2023-03-20T18:15:27.687Z,13.16
2023-03-20T18:17:55.110Z,13.07
2023-03-20T18:20:31.949Z,13.01
2023-03-20T18:22:59.349Z,12.96
2023-03-20T18:25:26.368Z,12.91
2023-03-20T18:27:55.489Z,12.86
2023-03-20T18:30:28.837Z,12.78
2023-03-20T18:32:56.084Z,12.74
2023-03-20T18:35:22.996Z,12.66
2023-03-20T18:37:49.996Z,12.63
2023-03-20T18:40:23.048Z,12.59
2023-03-20T18:42:49.968Z,12.54
2023-03-20T18:45:17.157Z,12.49
2023-03-20T18:47:44.524Z,12.46
2023-03-20T18:50:27.220Z,12.40
2023-03-20T18:52:56.634Z,12.36
2023-03-20T18:55:27.008Z,12.30
2023-03-20T18:57:54.520Z,12.28
2023-03-20T19:00:35.862Z,12.24
2023-03-20T19:03:03.743Z,12.19
2023-03-20T19:05:31.339Z,12.12
2023-03-20T19:07:59.854Z,12.09
2023-03-20T19:10:36.398Z,12.00
2023-03-20T19:13:06.104Z,11.95
2023-03-20T19:15:36.692Z,11.90
2023-03-20T19:18:12.058Z,11.85
2023-03-20T19:20:43.406Z,11.78
2023-03-20T19:23:14.127Z,11.72
2023-03-20T19:25:44.642Z,11.65
2023-03-20T19:28:21.748Z,11.62
2023-03-20T19:30:51.040Z,11.60
2023-03-20T19:33:18.372Z,11.57
2023-03-20T19:36:02.431Z,11.52
2023-03-20T19:38:30.915Z,11.47
2023-03-20T19:40:59.226Z,11.44
2023-03-20T19:43:28.810Z,11.39
2023-03-20T19:45:58.989Z,11.37
2023-03-20T19:48:51.491Z,11.33
2023-03-20T19:51:29.476Z,11.26
2023-03-20T19:53:56.593Z,11.24
2023-03-20T19:56:24.145Z,11.18
2023-03-20T19:58:52.198Z,11.15
2023-03-20T20:01:23.082Z,11.15
2023-03-20T20:03:53.293Z,11.11
2023-03-20T20:06:22.313Z,11.12
2023-03-20T20:08:50.669Z,11.10
2023-03-20T20:11:19.741Z,11.08
2023-03-20T20:14:07.255Z,11.07
2023-03-20T20:16:39.540Z,11.05
2023-03-20T20:19:07.282Z,11.05
2023-03-20T20:24:21.774Z,10.98
2023-03-20T20:27:07.070Z,10.95
2023-03-20T20:29:42.248Z,10.96
2023-03-20T20:32:09.182Z,10.95
2023-03-20T20:38:19.775Z,10.92
2023-03-20T20:40:17.096Z,10.86
2023-03-20T20:42:47.543Z,10.85
2023-03-20T20:45:15.275Z,10.87
2023-03-20T20:47:44.912Z,10.86
2023-03-20T20:50:14.617Z,10.85
2023-03-20T20:52:42.751Z,10.84
2023-03-20T20:55:22.603Z,10.86
2023-03-20T20:57:53.026Z,10.86
2023-03-20T21:00:27.495Z,10.86
2023-03-20T21:02:58.603Z,10.86
2023-03-20T21:05:26.898Z,10.85
2023-03-20T21:07:54.421Z,10.80
2023-03-20T21:10:22.221Z,10.77
2023-03-20T21:12:58.921Z,10.71
2023-03-20T21:15:26.818Z,10.69
2023-03-20T21:18:01.035Z,10.65
2023-03-20T21:20:32.695Z,10.59
2023-03-20T21:23:00.197Z,10.59
2023-03-20T21:25:47.081Z,10.54
2023-03-20T21:28:14.676Z,10.50
2023-03-20T21:30:54.636Z,10.46
2023-03-20T21:33:29.240Z,10.45
2023-03-20T21:35:56.123Z,10.43
2023-03-20T21:38:58.662Z,10.37
2023-03-20T21:41:11.171Z,10.36
2023-03-20T21:43:39.473Z,10.35
2023-03-20T21:55:04.052Z,10.33
2023-03-20T22:02:57.006Z,10.31
2023-03-20T22:06:14.445Z,10.32
2023-03-20T22:11:45.048Z,10.34
2023-03-20T22:17:32.884Z,10.43
2023-03-20T22:36:48.038Z,10.57
2023-03-20T22:42:19.938Z,10.60
2023-03-20T22:44:59.102Z,10.62
2023-03-20T22:47:13.302Z,10.63
2023-03-20T22:49:40.176Z,10.65
2023-03-20T22:52:23.023Z,10.70
2023-03-20T22:54:54.372Z,10.69
2023-03-20T22:57:21.400Z,10.72
2023-03-20T22:59:52.381Z,10.71
2023-03-20T23:02:19.631Z,10.72
2023-03-20T23:04:46.597Z,10.73
2023-03-20T23:07:13.622Z,10.71
2023-03-20T23:09:40.616Z,10.73
2023-03-20T23:12:07.847Z,10.69
2023-03-20T23:14:45.518Z,10.69
2023-03-20T23:17:12.996Z,10.64
2023-03-20T23:19:47.878Z,10.65
2023-03-20T23:22:19.164Z,10.63
2023-03-20T23:24:46.218Z,10.64
2023-03-20T23:27:13.396Z,10.64
2023-03-20T23:29:40.734Z,10.63
2023-03-20T23:32:07.868Z,10.64
2023-03-20T23:34:36.779Z,10.68
2023-03-20T23:37:04.198Z,10.69
2023-03-20T23:39:31.270Z,10.74
2023-03-20T23:42:11.990Z,10.80
2023-03-20T23:44:55.338Z,10.85
2023-03-20T23:47:27.694Z,10.88
2023-03-20T23:49:57.037Z,10.92
2023-03-20T23:52:23.933Z,10.95
2023-03-20T23:54:50.949Z,11.02
2023-03-20T23:57:18.024Z,11.05
2023-03-20T23:59:44.943Z,11.13
